Time;durP1;ratioP1;P1;durP2;ratioP2;P2;SDS_P1;SDS_P2;PMS_P1;PMS_P2;Temp;Humidity;BMP_temperature;BMP_pressure;BME280_temperature;BME280_humidity;BME280_pressure;Samples;Min_cycle;Max_cycle;Signal;HPM_P1;HPM_P2
2022/02/14 00:29:04;;;;;;;;;;;0.00;75.60;;;;;;6065966;23;19917;-76
2022/02/14 00:31:31;;;;;;;;;;;0.20;74.60;;;;;;6067109;23;19945;-75
2022/02/14 00:33:57;;;;;;;;;;;0.40;73.80;;;;;;6074459;23;19917;-74
2022/02/14 00:36:24;;;;;;;;;;;0.50;72.90;;;;;;6072367;23;19943;-75
2022/02/14 00:38:51;;;;;;;;;;;0.70;72.30;;;;;;6070321;23;19918;-74
2022/02/14 00:41:18;;;;;;;;;;;0.80;71.70;;;;;;6064759;23;20312;-76
2022/02/14 00:43:49;;;;;;;;;;;0.80;71.40;;;;;;6069735;23;19925;-74
2022/02/14 00:46:16;;;;;;;;;;;0.90;71.00;;;;;;6042162;23;19945;-76
2022/02/14 00:48:45;;;;;;;;;;;1.00;70.70;;;;;;6040620;23;19965;-75
2022/02/14 00:51:12;;;;;;;;;;;1.00;70.70;;;;;;6067547;23;20320;-74
2022/02/14 00:53:38;;;;;;;;;;;1.10;70.50;;;;;;6045734;23;19924;-76
2022/02/14 00:56:05;;;;;;;;;;;1.20;70.20;;;;;;6045654;23;19973;-76
2022/02/14 00:58:32;;;;;;;;;;;1.20;69.80;;;;;;6040851;23;19918;-74
2022/02/14 01:00:59;;;;;;;;;;;1.30;69.40;;;;;;6066867;23;20403;-75
2022/02/14 01:03:26;;;;;;;;;;;1.40;68.90;;;;;;6069519;23;19918;-74
2022/02/14 01:05:53;;;;;;;;;;;1.50;68.40;;;;;;6072594;23;19921;-74
2022/02/14 01:08:20;;;;;;;;;;;1.60;68.20;;;;;;6046029;23;20343;-74
2022/02/14 01:10:49;;;;;;;;;;;1.60;67.80;;;;;;6068205;23;19929;-76
2022/02/14 01:13:16;;;;;;;;;;;1.70;67.50;;;;;;6041118;23;19921;-76
2022/02/14 01:15:42;;;;;;;;;;;1.80;67.10;;;;;;6066412;23;19917;-74
2022/02/14 01:18:09;;;;;;;;;;;1.80;67.10;;;;;;6046019;23;19924;-74
2022/02/14 01:20:36;;;;;;;;;;;1.80;67.00;;;;;;6068042;23;20276;-76
2022/02/14 01:23:02;;;;;;;;;;;1.80;67.30;;;;;;6066276;23;19917;-75
2022/02/14 01:25:29;;;;;;;;;;;1.80;66.90;;;;;;6070506;23;19917;-75
2022/02/14 01:27:56;;;;;;;;;;;1.80;67.10;;;;;;6066480;23;19918;-75
2022/02/14 01:30:23;;;;;;;;;;;1.80;67.20;;;;;;6070733;23;19918;-75
2022/02/14 01:32:50;;;;;;;;;;;1.70;66.60;;;;;;6066645;23;20346;-75
2022/02/14 01:35:16;;;;;;;;;;;1.80;66.50;;;;;;6065537;23;19917;-74
2022/02/14 01:37:43;;;;;;;;;;;1.80;66.40;;;;;;6046171;23;19922;-75
2022/02/14 01:40:10;;;;;;;;;;;1.90;66.10;;;;;;6069367;23;19929;-74
2022/02/14 01:42:38;;;;;;;;;;;1.90;65.80;;;;;;6071365;23;19918;-75
2022/02/14 01:45:05;;;;;;;;;;;1.90;65.50;;;;;;6070208;23;19977;-75
2022/02/14 01:47:32;;;;;;;;;;;2.00;66.30;;;;;;6067615;23;20335;-74
2022/02/14 01:49:59;;;;;;;;;;;2.00;65.00;;;;;;6065739;23;19918;-77
2022/02/14 01:52:29;;;;;;;;;;;2.00;65.00;;;;;;6047783;23;19921;-74
2022/02/14 01:54:56;;;;;;;;;;;2.10;64.90;;;;;;6068426;23;19924;-76
2022/02/14 01:57:26;;;;;;;;;;;2.00;64.80;;;;;;6041751;23;20258;-75
2022/02/14 01:59:54;;;;;;;;;;;2.10;64.80;;;;;;6071152;23;19917;-74
2022/02/14 02:02:21;;;;;;;;;;;2.10;64.70;;;;;;6046995;23;20336;-75
2022/02/14 02:04:48;;;;;;;;;;;2.20;64.50;;;;;;6039494;23;19965;-76
2022/02/14 02:07:15;;;;;;;;;;;2.20;64.20;;;;;;6044155;23;20003;-74
2022/02/14 02:09:43;;;;;;;;;;;2.30;63.60;;;;;;6042242;23;19917;-75
2022/02/14 02:12:22;;;;;;;;;;;2.30;63.50;;;;;;6043400;23;19921;-75
2022/02/14 02:14:56;;;;;;;;;;;2.30;63.50;;;;;;6045050;23;19921;-75
2022/02/14 02:17:24;;;;;;;;;;;2.20;63.80;;;;;;6040488;23;20410;-75
2022/02/14 02:19:51;;;;;;;;;;;2.30;63.80;;;;;;6068154;23;20232;-75
2022/02/14 02:22:18;;;;;;;;;;;2.30;63.70;;;;;;6073580;23;19917;-75
2022/02/14 02:24:46;;;;;;;;;;;2.30;63.60;;;;;;6069274;23;19968;-75
2022/02/14 02:27:13;;;;;;;;;;;2.20;63.50;;;;;;6070723;23;19917;-76
2022/02/14 02:29:40;;;;;;;;;;;2.20;63.70;;;;;;6065424;23;19921;-76
2022/02/14 02:32:09;;;;;;;;;;;2.20;63.50;;;;;;6070476;23;20250;-76
2022/02/14 02:34:40;;;;;;;;;;;2.20;63.70;;;;;;6071416;23;19992;-75
2022/02/14 02:37:08;;;;;;;;;;;2.20;63.60;;;;;;6067493;23;19918;-75
2022/02/14 02:39:38;;;;;;;;;;;2.20;63.20;;;;;;6071891;23;19924;-75
2022/02/14 02:42:05;;;;;;;;;;;2.30;63.20;;;;;;6070293;23;19922;-75
2022/02/14 02:44:33;;;;;;;;;;;2.30;63.10;;;;;;6049065;23;19917;-74
2022/02/14 02:47:01;;;;;;;;;;;2.40;62.90;;;;;;6070266;23;19925;-75
2022/02/14 02:49:28;;;;;;;;;;;2.40;63.00;;;;;;6066626;23;19924;-75
2022/02/14 02:51:55;;;;;;;;;;;2.40;63.00;;;;;;6070490;23;19921;-75
2022/02/14 02:54:22;;;;;;;;;;;2.40;62.50;;;;;;6070694;23;19965;-76
2022/02/14 02:56:50;;;;;;;;;;;2.40;62.50;;;;;;6044852;23;20236;-75
2022/02/14 02:59:17;;;;;;;;;;;2.50;62.30;;;;;;6042724;23;19921;-76
2022/02/14 03:01:44;;;;;;;;;;;2.50;62.10;;;;;;6046731;23;19918;-74
2022/02/14 03:04:11;;;;;;;;;;;2.50;62.00;;;;;;6045811;23;19925;-75
2022/02/14 03:06:38;;;;;;;;;;;2.60;61.80;;;;;;6044113;23;19918;-77
2022/02/14 03:09:06;;;;;;;;;;;2.60;62.00;;;;;;6042876;23;19965;-74
2022/02/14 03:11:34;;;;;;;;;;;2.60;61.70;;;;;;6044743;23;19925;-74
2022/02/14 03:14:01;;;;;;;;;;;2.70;61.80;;;;;;6047628;23;19924;-76
2022/02/14 03:16:28;;;;;;;;;;;2.60;61.60;;;;;;6068321;23;20303;-76
2022/02/14 03:18:55;;;;;;;;;;;2.60;61.30;;;;;;6065388;23;19970;-76
2022/02/14 03:21:22;;;;;;;;;;;2.70;61.10;;;;;;6067078;23;19965;-76
2022/02/14 03:23:50;;;;;;;;;;;2.70;61.20;;;;;;6072509;23;19925;-74
2022/02/14 03:26:19;;;;;;;;;;;2.70;61.10;;;;;;6072693;23;20239;-74
2022/02/14 03:28:46;;;;;;;;;;;2.70;60.90;;;;;;6070692;23;19918;-74
2022/02/14 03:31:13;;;;;;;;;;;2.70;60.80;;;;;;6072718;23;19928;-76
2022/02/14 03:33:41;;;;;;;;;;;2.70;60.80;;;;;;6070439;23;20354;-75
2022/02/14 03:36:07;;;;;;;;;;;2.70;60.90;;;;;;6068571;23;19917;-76
2022/02/14 03:38:34;;;;;;;;;;;2.70;61.00;;;;;;6043088;23;19925;-75
2022/02/14 03:41:01;;;;;;;;;;;2.70;60.90;;;;;;6073928;23;19918;-76
2022/02/14 03:43:28;;;;;;;;;;;2.70;60.70;;;;;;6042222;23;20339;-76
2022/02/14 03:45:55;;;;;;;;;;;2.60;60.70;;;;;;6068839;23;19946;-75
2022/02/14 03:48:23;;;;;;;;;;;2.60;61.00;;;;;;6069217;23;19917;-74
2022/02/14 03:50:50;;;;;;;;;;;2.60;60.60;;;;;;6074252;23;19918;-76
2022/02/14 03:53:17;;;;;;;;;;;2.70;60.60;;;;;;6044678;23;19922;-75
2022/02/14 03:55:44;;;;;;;;;;;2.70;60.60;;;;;;6070147;23;19918;-75
2022/02/14 03:58:11;;;;;;;;;;;2.70;60.10;;;;;;6047176;23;19917;-76
2022/02/14 04:00:38;;;;;;;;;;;2.80;60.10;;;;;;6072416;23;19950;-76
2022/02/14 04:03:10;;;;;;;;;;;2.80;60.10;;;;;;6067716;23;19925;-75
2022/02/14 04:05:37;;;;;;;;;;;2.80;60.10;;;;;;6045033;23;19921;-74
2022/02/14 04:08:04;;;;;;;;;;;2.70;60.10;;;;;;6043529;23;19917;-74
2022/02/14 04:10:30;;;;;;;;;;;2.70;60.10;;;;;;6071149;23;19924;-75
2022/02/14 04:12:57;;;;;;;;;;;2.70;60.30;;;;;;6066110;23;19917;-76
2022/02/14 04:15:25;;;;;;;;;;;2.60;60.50;;;;;;6047046;23;19940;-76
2022/02/14 04:17:52;;;;;;;;;;;2.60;60.70;;;;;;6043122;23;19921;-75
2022/02/14 04:20:19;;;;;;;;;;;2.50;61.00;;;;;;6044688;23;19949;-76
2022/02/14 04:22:47;;;;;;;;;;;2.50;61.10;;;;;;6044634;23;19917;-75
2022/02/14 04:25:15;;;;;;;;;;;2.50;60.90;;;;;;6046683;23;19922;-76
2022/02/14 04:27:42;;;;;;;;;;;2.40;61.20;;;;;;6047521;23;19918;-76
2022/02/14 04:30:11;;;;;;;;;;;2.40;61.00;;;;;;6059457;23;19917;-74
2022/02/14 04:32:38;;;;;;;;;;;2.40;61.10;;;;;;6072147;23;19921;-74
2022/02/14 04:35:04;;;;;;;;;;;2.30;61.10;;;;;;6049340;23;20335;-75
2022/02/14 04:37:31;;;;;;;;;;;2.30;61.40;;;;;;6068366;23;19917;-76
2022/02/14 04:39:58;;;;;;;;;;;2.40;61.00;;;;;;6040721;23;19941;-76
2022/02/14 04:42:25;;;;;;;;;;;2.40;60.70;;;;;;6045122;23;19929;-75
2022/02/14 04:44:52;;;;;;;;;;;2.40;60.60;;;;;;6068346;23;19941;-76
2022/02/14 04:47:18;;;;;;;;;;;2.50;60.50;;;;;;6072647;23;19922;-76
2022/02/14 04:49:45;;;;;;;;;;;2.50;60.50;;;;;;6066202;23;19922;-75
2022/02/14 04:52:12;;;;;;;;;;;2.50;60.40;;;;;;6040759;23;19917;-75
2022/02/14 04:54:39;;;;;;;;;;;2.50;60.50;;;;;;6066879;23;19918;-76
2022/02/14 04:57:05;;;;;;;;;;;2.50;60.30;;;;;;6045999;23;19917;-76
2022/02/14 04:59:33;;;;;;;;;;;2.50;60.30;;;;;;6074521;23;19941;-74
2022/02/14 05:02:00;;;;;;;;;;;2.50;60.50;;;;;;6068061;23;20266;-74
2022/02/14 05:04:28;;;;;;;;;;;2.40;60.60;;;;;;6047382;23;20398;-76
2022/02/14 05:06:55;;;;;;;;;;;2.40;60.60;;;;;;6068078;23;20259;-76
2022/02/14 05:09:22;;;;;;;;;;;2.40;60.70;;;;;;6047072;23;19917;-76
2022/02/14 05:11:49;;;;;;;;;;;2.40;60.70;;;;;;6064899;23;19917;-76
2022/02/14 05:14:16;;;;;;;;;;;2.40;60.80;;;;;;6067015;23;19965;-76
2022/02/14 05:16:42;;;;;;;;;;;2.30;61.00;;;;;;6044094;23;19974;-75
2022/02/14 05:19:09;;;;;;;;;;;2.30;61.00;;;;;;6067190;23;19951;-75
2022/02/14 05:21:36;;;;;;;;;;;2.30;60.90;;;;;;6048590;23;19918;-74
2022/02/14 05:24:03;;;;;;;;;;;2.30;61.20;;;;;;6066855;23;20339;-75
2022/02/14 05:26:29;;;;;;;;;;;2.30;61.00;;;;;;6042680;23;19928;-74
2022/02/14 05:28:56;;;;;;;;;;;2.30;61.20;;;;;;6064706;23;19918;-76
2022/02/14 05:31:23;;;;;;;;;;;2.30;61.20;;;;;;6068784;23;19919;-76
2022/02/14 05:33:50;;;;;;;;;;;2.30;61.20;;;;;;6071604;23;20240;-76
2022/02/14 05:36:21;;;;;;;;;;;2.40;61.00;;;;;;6070764;23;20315;-74
2022/02/14 05:38:48;;;;;;;;;;;2.40;60.80;;;;;;6071132;23;19922;-75
2022/02/14 05:41:15;;;;;;;;;;;2.40;60.70;;;;;;6070293;23;19929;-76
2022/02/14 05:43:41;;;;;;;;;;;2.40;60.80;;;;;;6067765;23;19917;-76
2022/02/14 05:46:13;;;;;;;;;;;2.40;60.70;;;;;;6067622;23;19921;-75
2022/02/14 05:48:41;;;;;;;;;;;2.40;60.60;;;;;;6068906;23;19945;-75
2022/02/14 05:51:09;;;;;;;;;;;2.50;60.40;;;;;;6068279;23;19973;-75
2022/02/14 05:53:37;;;;;;;;;;;2.50;60.40;;;;;;6068442;23;19918;-75
2022/02/14 05:56:04;;;;;;;;;;;2.50;60.50;;;;;;6066964;23;20039;-74
2022/02/14 05:58:30;;;;;;;;;;;2.40;60.80;;;;;;6070962;23;19917;-74
2022/02/14 06:00:57;;;;;;;;;;;2.50;60.80;;;;;;6071748;23;19917;-75
2022/02/14 06:03:24;;;;;;;;;;;2.40;61.20;;;;;;6046528;23;20016;-75
2022/02/14 06:05:51;;;;;;;;;;;2.40;60.80;;;;;;6048933;23;19917;-75
2022/02/14 06:08:19;;;;;;;;;;;2.50;60.70;;;;;;6066968;23;20286;-75
2022/02/14 06:10:46;;;;;;;;;;;2.40;60.80;;;;;;6046290;23;19921;-75
2022/02/14 06:13:13;;;;;;;;;;;2.40;60.70;;;;;;6070403;23;19917;-75
2022/02/14 06:15:39;;;;;;;;;;;2.50;60.30;;;;;;6070712;23;19925;-74
2022/02/14 06:18:06;;;;;;;;;;;2.50;60.50;;;;;;6066306;23;20339;-75
2022/02/14 06:20:33;;;;;;;;;;;2.50;60.90;;;;;;6068213;23;19924;-75
2022/02/14 06:23:00;;;;;;;;;;;2.50;60.80;;;;;;6069727;23;19921;-75
2022/02/14 06:25:26;;;;;;;;;;;2.50;60.60;;;;;;6042527;23;19953;-76
2022/02/14 06:27:53;;;;;;;;;;;2.50;60.90;;;;;;6070197;23;20015;-75
2022/02/14 06:30:22;;;;;;;;;;;2.50;60.40;;;;;;6068405;23;19921;-75
2022/02/14 06:32:49;;;;;;;;;;;2.50;60.30;;;;;;6066596;23;19952;-75
2022/02/14 06:35:15;;;;;;;;;;;2.60;60.10;;;;;;6043192;23;19951;-75
2022/02/14 06:37:43;;;;;;;;;;;2.60;60.00;;;;;;6067475;23;20366;-76
2022/02/14 06:40:11;;;;;;;;;;;2.60;60.00;;;;;;6044390;23;19922;-75
2022/02/14 06:42:37;;;;;;;;;;;2.60;60.00;;;;;;6070631;23;20328;-75
2022/02/14 06:45:04;;;;;;;;;;;2.60;60.10;;;;;;6043306;23;19921;-76
2022/02/14 06:47:31;;;;;;;;;;;2.60;60.00;;;;;;6043352;23;19917;-75
2022/02/14 06:49:58;;;;;;;;;;;2.60;60.60;;;;;;6077092;23;19929;-75
2022/02/14 06:52:25;;;;;;;;;;;2.60;60.60;;;;;;6048978;23;19973;-76
2022/02/14 06:54:51;;;;;;;;;;;2.50;60.90;;;;;;6067758;23;19969;-75
2022/02/14 06:57:18;;;;;;;;;;;2.50;61.10;;;;;;6041270;23;19917;-75
2022/02/14 06:59:45;;;;;;;;;;;2.50;61.00;;;;;;6070783;23;19921;-75
2022/02/14 07:02:15;;;;;;;;;;;2.60;60.70;;;;;;6074344;23;19917;-74
2022/02/14 07:04:41;;;;;;;;;;;2.60;60.70;;;;;;6070617;23;19918;-75
2022/02/14 07:07:08;;;;;;;;;;;2.60;61.60;;;;;;6069993;23;19957;-75
2022/02/14 07:09:35;;;;;;;;;;;2.60;63.30;;;;;;6071045;23;19922;-74
2022/02/14 07:12:02;;;;;;;;;;;2.60;64.20;;;;;;6072674;23;19918;-75
2022/02/14 07:14:28;;;;;;;;;;;2.50;64.20;;;;;;6048883;23;19921;-75
2022/02/14 07:16:55;;;;;;;;;;;2.50;63.60;;;;;;6077201;23;20395;-75
2022/02/14 07:19:22;;;;;;;;;;;2.50;65.20;;;;;;6079113;23;19969;-74
2022/02/14 07:21:49;;;;;;;;;;;2.50;65.20;;;;;;6071234;23;20236;-75
2022/02/14 07:24:15;;;;;;;;;;;2.50;65.00;;;;;;6044380;23;19945;-75
2022/02/14 07:26:42;;;;;;;;;;;2.50;65.10;;;;;;6068869;23;19918;-75
2022/02/14 07:29:09;;;;;;;;;;;2.50;62.20;;;;;;6066029;23;19976;-75
2022/02/14 07:31:36;;;;;;;;;;;2.60;61.50;;;;;;6069476;23;19918;-75
2022/02/14 07:34:02;;;;;;;;;;;2.60;61.30;;;;;;6075061;23;19973;-74
2022/02/14 07:36:29;;;;;;;;;;;2.70;60.60;;;;;;6065123;23;20023;-75
2022/02/14 07:38:56;;;;;;;;;;;2.70;60.20;;;;;;6047073;23;19917;-74
2022/02/14 07:41:23;;;;;;;;;;;2.80;59.90;;;;;;6045013;23;19918;-76
2022/02/14 07:43:49;;;;;;;;;;;2.80;59.80;;;;;;6065714;23;19973;-75
2022/02/14 07:46:18;;;;;;;;;;;2.90;59.50;;;;;;6067365;23;20251;-74
2022/02/14 07:48:46;;;;;;;;;;;2.90;59.50;;;;;;6069785;23;19969;-75
2022/02/14 07:51:14;;;;;;;;;;;2.90;59.40;;;;;;6045378;23;19928;-75
2022/02/14 07:53:43;;;;;;;;;;;2.90;60.00;;;;;;6074588;23;19937;-74
2022/02/14 07:56:12;;;;;;;;;;;3.00;60.50;;;;;;6068451;23;20343;-75
2022/02/14 07:58:39;;;;;;;;;;;2.90;59.90;;;;;;6042364;23;19921;-76
2022/02/14 08:01:06;;;;;;;;;;;2.90;60.00;;;;;;6041104;23;19940;-75
2022/02/14 08:03:33;;;;;;;;;;;2.90;59.60;;;;;;6044270;23;19918;-74
2022/02/14 08:06:20;;;;;;;;;;;3.00;59.40;;;;;;6072568;23;22082;-75
2022/02/14 08:08:46;;;;;;;;;;;2.90;59.60;;;;;;6050502;23;19965;-76
2022/02/14 08:11:13;;;;;;;;;;;2.90;59.60;;;;;;6068734;23;19945;-75
2022/02/14 08:13:40;;;;;;;;;;;2.90;59.30;;;;;;6045258;23;19958;-75
2022/02/14 08:16:07;;;;;;;;;;;3.00;59.60;;;;;;6047107;23;19921;-75
2022/02/14 08:18:34;;;;;;;;;;;3.00;59.30;;;;;;6069093;23;19921;-75
2022/02/14 08:21:01;;;;;;;;;;;3.10;59.20;;;;;;6067713;23;19921;-75
2022/02/14 08:23:27;;;;;;;;;;;3.10;59.60;;;;;;6066624;23;19917;-76
2022/02/14 08:25:54;;;;;;;;;;;3.20;59.80;;;;;;6049891;23;19928;-75
2022/02/14 08:28:22;;;;;;;;;;;3.10;59.60;;;;;;6066693;23;19993;-74
2022/02/14 08:30:50;;;;;;;;;;;3.20;59.70;;;;;;6070836;23;19961;-74
2022/02/14 08:33:17;;;;;;;;;;;3.20;59.70;;;;;;6067810;23;20252;-75
2022/02/14 08:35:44;;;;;;;;;;;3.30;59.60;;;;;;6042120;23;19973;-74
2022/02/14 08:38:12;;;;;;;;;;;3.30;59.40;;;;;;6070690;23;20335;-74
2022/02/14 08:40:39;;;;;;;;;;;3.40;59.30;;;;;;6047107;23;19925;-75
2022/02/14 08:43:06;;;;;;;;;;;3.40;59.10;;;;;;6064282;23;19949;-76
2022/02/14 08:45:52;;;;;;;;;;;3.40;59.60;;;;;;6066601;23;20391;-75
2022/02/14 08:48:19;;;;;;;;;;;3.50;59.20;;;;;;6040690;23;19985;-76
2022/02/14 08:50:46;;;;;;;;;;;3.50;59.20;;;;;;6065180;23;19918;-76
2022/02/14 08:53:13;;;;;;;;;;;3.60;59.10;;;;;;6070256;23;19928;-74
2022/02/14 08:55:40;;;;;;;;;;;3.60;59.40;;;;;;6066493;23;19921;-75
2022/02/14 08:58:07;;;;;;;;;;;3.60;59.30;;;;;;6065886;23;20254;-76
2022/02/14 09:00:34;;;;;;;;;;;3.70;57.90;;;;;;6050181;23;19973;-74
2022/02/14 09:03:01;;;;;;;;;;;3.70;57.30;;;;;;6045974;23;20254;-75
2022/02/14 09:05:27;;;;;;;;;;;3.80;57.60;;;;;;6069952;23;19921;-74
2022/02/14 09:07:54;;;;;;;;;;;3.80;57.50;;;;;;6043599;23;19924;-75
2022/02/14 09:10:22;;;;;;;;;;;3.80;57.60;;;;;;6047073;23;19917;-75
2022/02/14 09:12:49;;;;;;;;;;;3.90;57.30;;;;;;6044917;23;19927;-76
2022/02/14 09:15:16;;;;;;;;;;;3.90;57.70;;;;;;6043173;23;20240;-75
2022/02/14 09:17:43;;;;;;;;;;;4.00;57.90;;;;;;6070194;23;19917;-75
2022/02/14 09:20:10;;;;;;;;;;;4.00;57.50;;;;;;6070351;23;19941;-75
2022/02/14 09:22:37;;;;;;;;;;;4.10;57.50;;;;;;6067036;23;19917;-76
2022/02/14 09:25:04;;;;;;;;;;;4.10;57.80;;;;;;6065436;23;20280;-75
2022/02/14 09:27:31;;;;;;;;;;;4.20;57.80;;;;;;6071785;23;19921;-75
2022/02/14 09:29:59;;;;;;;;;;;4.20;57.10;;;;;;6068359;23;19917;-75
2022/02/14 09:32:26;;;;;;;;;;;4.30;56.90;;;;;;6042831;23;19925;-75
2022/02/14 09:34:53;;;;;;;;;;;4.40;56.50;;;;;;6068854;23;19917;-76
2022/02/14 09:37:20;;;;;;;;;;;4.40;55.50;;;;;;6067815;23;19925;-75
2022/02/14 09:39:47;;;;;;;;;;;4.50;55.40;;;;;;6046112;23;19984;-76
2022/02/14 09:42:14;;;;;;;;;;;4.50;55.80;;;;;;6065406;23;19981;-76
2022/02/14 09:44:41;;;;;;;;;;;4.50;55.50;;;;;;6066209;23;19965;-75
2022/02/14 09:47:08;;;;;;;;;;;4.60;55.60;;;;;;6040607;23;19969;-76
2022/02/14 09:49:36;;;;;;;;;;;4.70;55.90;;;;;;6041312;23;19989;-76
2022/02/14 09:52:03;;;;;;;;;;;4.70;55.00;;;;;;6044418;23;19922;-76
2022/02/14 09:54:30;;;;;;;;;;;4.70;55.10;;;;;;6047225;23;19973;-75
2022/02/14 09:56:57;;;;;;;;;;;4.80;55.00;;;;;;6072993;23;19917;-75
2022/02/14 09:59:24;;;;;;;;;;;4.90;55.00;;;;;;6043720;23;20423;-74
2022/02/14 10:01:52;;;;;;;;;;;4.90;54.60;;;;;;6072688;23;19925;-76
2022/02/14 10:04:19;;;;;;;;;;;5.00;55.80;;;;;;6045479;23;19942;-75
2022/02/14 10:06:46;;;;;;;;;;;5.10;54.80;;;;;;6065912;23;19934;-76
2022/02/14 10:09:18;;;;;;;;;;;5.10;54.90;;;;;;6066231;23;19917;-77
2022/02/14 10:11:56;;;;;;;;;;;5.20;54.40;;;;;;6044214;23;19918;-76
2022/02/14 10:14:23;;;;;;;;;;;5.20;54.70;;;;;;6065180;23;19917;-76
2022/02/14 10:17:02;;;;;;;;;;;5.30;54.10;;;;;;6047874;23;19976;-76
2022/02/14 10:19:30;;;;;;;;;;;5.30;53.00;;;;;;6065316;23;19922;-76
2022/02/14 10:21:57;;;;;;;;;;;5.30;53.40;;;;;;6041509;23;19953;-76
2022/02/14 10:24:25;;;;;;;;;;;5.30;52.60;;;;;;6064765;23;19922;-76
2022/02/14 10:26:54;;;;;;;;;;;5.30;53.10;;;;;;6068192;23;19977;-75
2022/02/14 10:29:31;;;;;;;;;;;5.40;52.60;;;;;;6068792;23;19917;-74
2022/02/14 10:32:16;;;;;;;;;;;5.40;52.30;;;;;;6069397;23;20291;-75
2022/02/14 10:34:54;;;;;;;;;;;5.50;52.80;;;;;;6072807;23;19918;-76
2022/02/14 10:37:42;;;;;;;;;;;5.60;53.50;;;;;;6066773;23;19917;-76
2022/02/14 10:40:10;;;;;;;;;;;5.60;52.50;;;;;;6069645;23;19918;-76
2022/02/14 10:42:37;;;;;;;;;;;5.70;52.10;;;;;;6069781;23;20250;-76
2022/02/14 10:45:08;;;;;;;;;;;5.80;51.60;;;;;;6047583;23;19922;-76
2022/02/14 10:47:46;;;;;;;;;;;5.90;51.30;;;;;;6077379;23;20013;-76
2022/02/14 10:50:18;;;;;;;;;;;5.90;51.40;;;;;;6083067;23;19917;-76
2022/02/14 10:52:46;;;;;;;;;;;6.00;51.90;;;;;;6069477;23;20418;-76
2022/02/14 10:55:15;;;;;;;;;;;6.00;52.00;;;;;;6076497;23;20295;-75
2022/02/14 10:57:43;;;;;;;;;;;6.10;51.70;;;;;;6074474;23;19917;-77
2022/02/14 11:00:12;;;;;;;;;;;6.20;51.70;;;;;;6046789;23;19925;-76
2022/02/14 11:02:44;;;;;;;;;;;6.20;52.20;;;;;;6046699;23;19922;-76
2022/02/14 11:05:11;;;;;;;;;;;6.20;51.90;;;;;;6043781;23;19918;-76
2022/02/14 11:07:39;;;;;;;;;;;6.30;51.10;;;;;;6069889;23;19918;-76
2022/02/14 11:10:09;;;;;;;;;;;6.30;51.10;;;;;;6045225;23;20232;-76
2022/02/14 11:12:38;;;;;;;;;;;6.40;50.10;;;;;;6042227;23;19918;-76
2022/02/14 11:15:06;;;;;;;;;;;6.50;49.90;;;;;;6072204;23;19921;-77
2022/02/14 11:17:34;;;;;;;;;;;6.40;49.80;;;;;;6044603;23;20383;-76
2022/02/14 11:20:08;;;;;;;;;;;6.50;49.50;;;;;;6067466;23;19917;-76
2022/02/14 11:22:36;;;;;;;;;;;6.50;50.30;;;;;;6050279;23;19946;-76
2022/02/14 11:25:09;;;;;;;;;;;6.50;50.40;;;;;;6033367;23;19921;-75
2022/02/14 11:27:38;;;;;;;;;;;6.50;49.50;;;;;;6042445;23;19918;-75
2022/02/14 11:30:06;;;;;;;;;;;6.50;50.10;;;;;;6046751;23;19929;-75
2022/02/14 11:32:40;;;;;;;;;;;6.60;50.80;;;;;;6036950;23;19918;-76
2022/02/14 11:35:17;;;;;;;;;;;6.60;50.10;;;;;;6049032;23;19943;-76
2022/02/14 11:38:05;;;;;;;;;;;6.70;49.80;;;;;;6051295;23;19925;-76
2022/02/14 11:40:39;;;;;;;;;;;6.70;49.80;;;;;;6066133;23;20403;-76
2022/02/14 11:43:20;;;;;;;;;;;6.80;49.70;;;;;;6041221;23;19917;-76
2022/02/14 11:46:06;;;;;;;;;;;6.80;49.30;;;;;;6068259;23;19974;-76
2022/02/14 11:48:36;;;;;;;;;;;6.80;49.70;;;;;;6063051;23;19918;-76
2022/02/14 11:51:07;;;;;;;;;;;6.90;50.60;;;;;;6046339;23;20255;-75
2022/02/14 11:53:41;;;;;;;;;;;6.80;49.80;;;;;;6039696;23;19922;-75
2022/02/14 11:56:20;;;;;;;;;;;6.70;50.40;;;;;;6047650;23;19921;-75
2022/02/14 11:59:03;;;;;;;;;;;6.60;51.50;;;;;;6064355;23;19918;-75
2022/02/14 12:01:32;;;;;;;;;;;6.60;52.10;;;;;;6050328;23;19989;-76
2022/02/14 12:04:22;;;;;;;;;;;6.60;51.90;;;;;;6042761;23;19973;-75
2022/02/14 12:07:07;;;;;;;;;;;6.50;52.00;;;;;;6042755;23;19918;-76
2022/02/14 12:09:53;;;;;;;;;;;6.50;53.00;;;;;;6045647;23;19921;-74
2022/02/14 12:12:39;;;;;;;;;;;6.40;53.90;;;;;;6060896;23;19933;-76
2022/02/14 12:20:34;;;;;;;;;;;6.40;54.20;;;;;;6058236;23;19956;-76
2022/02/14 12:21:07;;;;;;;;;;;6.40;54.80;;;;;;6043965;23;19934;-75
2022/02/14 12:23:58;;;;;;;;;;;6.40;54.90;;;;;;6041324;23;19941;-74
2022/02/14 12:26:27;;;;;;;;;;;6.30;54.90;;;;;;6039130;23;19921;-75
2022/02/14 12:31:50;;;;;;;;;;;6.30;55.50;;;;;;6039713;23;19918;-76
2022/02/14 12:34:39;;;;;;;;;;;6.30;55.30;;;;;;6040213;23;19922;-76
2022/02/14 12:37:06;;;;;;;;;;;6.30;54.90;;;;;;6039429;23;19917;-75
2022/02/14 12:39:39;;;;;;;;;;;6.30;53.80;;;;;;6038244;23;19941;-76
2022/02/14 12:42:17;;;;;;;;;;;6.20;54.60;;;;;;6041185;23;19918;-76
2022/02/14 12:44:44;;;;;;;;;;;6.20;54.90;;;;;;6036605;23;19989;-76
2022/02/14 12:47:11;;;;;;;;;;;6.30;54.80;;;;;;6028124;23;20339;-75
2022/02/14 12:49:40;;;;;;;;;;;6.30;54.80;;;;;;6039967;23;19969;-75
2022/02/14 12:52:08;;;;;;;;;;;6.30;54.70;;;;;;6036379;23;19922;-75
2022/02/14 12:54:35;;;;;;;;;;;6.30;54.60;;;;;;6044239;23;19969;-75
2022/02/14 12:57:05;;;;;;;;;;;6.30;54.20;;;;;;6036018;23;20276;-77
2022/02/14 12:59:33;;;;;;;;;;;6.30;54.10;;;;;;6063026;23;19918;-75
2022/02/14 13:01:59;;;;;;;;;;;6.30;53.70;;;;;;6026651;23;19965;-75
2022/02/14 13:04:29;;;;;;;;;;;6.20;53.50;;;;;;6067726;23;19917;-76
2022/02/14 13:06:56;;;;;;;;;;;6.20;54.00;;;;;;6033006;23;19925;-75
2022/02/14 13:09:32;;;;;;;;;;;6.20;54.20;;;;;;6026849;23;19918;-76
2022/02/14 13:12:08;;;;;;;;;;;6.20;53.80;;;;;;6033973;23;20395;-75
2022/02/14 13:14:42;;;;;;;;;;;6.20;53.70;;;;;;6039573;23;19924;-75
2022/02/14 13:17:12;;;;;;;;;;;6.20;54.30;;;;;;6039477;23;19965;-76
2022/02/14 13:19:54;;;;;;;;;;;6.20;54.50;;;;;;6030443;23;19935;-75
2022/02/14 13:22:23;;;;;;;;;;;6.20;54.70;;;;;;6037602;23;19922;-76
2022/02/14 13:24:55;;;;;;;;;;;6.20;54.60;;;;;;6040202;23;20234;-75
2022/02/14 13:27:26;;;;;;;;;;;6.20;54.50;;;;;;6028417;23;20339;-75
2022/02/14 13:29:53;;;;;;;;;;;6.20;53.70;;;;;;6067982;23;19917;-76
2022/02/14 13:32:37;;;;;;;;;;;6.20;53.30;;;;;;6042919;23;19918;-75
2022/02/14 13:35:06;;;;;;;;;;;6.10;53.20;;;;;;6073911;23;19917;-76
2022/02/14 13:37:43;;;;;;;;;;;6.10;53.60;;;;;;6043551;23;19996;-76
2022/02/14 13:40:36;;;;;;;;;;;6.10;53.40;;;;;;6068019;23;19922;-76
2022/02/14 13:43:26;;;;;;;;;;;6.10;53.30;;;;;;6038473;23;19937;-76
2022/02/14 13:45:55;;;;;;;;;;;6.10;53.30;;;;;;6029756;23;19917;-75
2022/02/14 13:48:24;;;;;;;;;;;6.10;54.00;;;;;;6055478;23;19921;-76
2022/02/14 13:50:55;;;;;;;;;;;6.10;54.40;;;;;;6052770;23;19929;-76
2022/02/14 13:53:29;;;;;;;;;;;6.10;53.70;;;;;;6042058;23;20296;-76
2022/02/14 13:56:00;;;;;;;;;;;6.10;53.90;;;;;;6046527;23;19969;-77
2022/02/14 13:58:27;;;;;;;;;;;6.10;53.50;;;;;;6064935;23;19922;-75
2022/02/14 14:00:54;;;;;;;;;;;6.10;53.60;;;;;;6068204;23;19918;-76
2022/02/14 14:03:25;;;;;;;;;;;6.10;53.90;;;;;;6050354;23;19921;-75
2022/02/14 14:05:52;;;;;;;;;;;6.10;53.30;;;;;;6046897;23;19921;-75
2022/02/14 14:08:32;;;;;;;;;;;6.10;54.30;;;;;;6066266;23;19960;-75
2022/02/14 14:10:59;;;;;;;;;;;6.10;53.00;;;;;;6069122;23;19918;-77
2022/02/14 14:13:42;;;;;;;;;;;6.10;53.50;;;;;;6048314;23;20358;-76
2022/02/14 14:16:09;;;;;;;;;;;6.10;53.50;;;;;;6055133;23;19918;-75
2022/02/14 14:18:36;;;;;;;;;;;6.20;53.40;;;;;;6037194;23;19917;-76
2022/02/14 14:21:07;;;;;;;;;;;6.20;53.30;;;;;;6067853;23;20258;-75
2022/02/14 14:23:34;;;;;;;;;;;6.20;53.60;;;;;;6073319;23;19934;-75
2022/02/14 14:26:03;;;;;;;;;;;6.20;53.20;;;;;;6056151;23;19917;-77
2022/02/14 14:28:30;;;;;;;;;;;6.20;53.10;;;;;;6041945;23;19928;-76
2022/02/14 14:30:57;;;;;;;;;;;6.20;53.10;;;;;;6032578;23;20251;-76
2022/02/14 14:33:26;;;;;;;;;;;6.20;52.80;;;;;;6055358;23;19917;-75
2022/02/14 14:35:53;;;;;;;;;;;6.10;52.10;;;;;;6052814;23;19937;-77
2022/02/14 14:38:21;;;;;;;;;;;6.10;52.50;;;;;;6070192;23;19984;-76
2022/02/14 14:40:48;;;;;;;;;;;6.20;52.70;;;;;;6056534;23;19969;-75
2022/02/14 14:43:14;;;;;;;;;;;6.20;53.40;;;;;;6073363;23;19922;-76
2022/02/14 14:45:43;;;;;;;;;;;6.20;53.20;;;;;;6065100;23;19917;-75
2022/02/14 14:48:10;;;;;;;;;;;6.10;53.50;;;;;;6037485;23;19925;-75
2022/02/14 14:50:37;;;;;;;;;;;6.20;53.20;;;;;;6072001;23;19969;-76
2022/02/14 14:53:04;;;;;;;;;;;6.20;53.60;;;;;;6055269;23;20395;-76
2022/02/14 14:55:34;;;;;;;;;;;6.20;53.10;;;;;;6041858;23;19957;-76
2022/02/14 14:58:01;;;;;;;;;;;6.20;52.90;;;;;;6045265;23;19917;-75
2022/02/14 15:00:29;;;;;;;;;;;6.10;52.40;;;;;;6011211;23;19917;-77
2022/02/14 15:02:59;;;;;;;;;;;6.10;52.80;;;;;;6045652;23;19917;-77
2022/02/14 15:05:29;;;;;;;;;;;6.10;52.40;;;;;;6069016;23;20361;-76
2022/02/14 15:07:55;;;;;;;;;;;6.00;52.10;;;;;;6072452;23;19922;-76
2022/02/14 15:10:22;;;;;;;;;;;6.00;52.40;;;;;;6044871;23;19921;-76
2022/02/14 15:12:49;;;;;;;;;;;6.00;52.60;;;;;;6066206;23;19921;-76
2022/02/14 15:15:16;;;;;;;;;;;6.00;53.10;;;;;;6044350;23;20255;-76